createdAt,value
2018-07-19T00:00:29.547Z,1001.65
2018-07-19T00:01:29.607Z,1001.62
2018-07-19T00:02:29.553Z,1001.69
2018-07-19T00:03:29.565Z,1001.63
2018-07-19T00:04:29.561Z,1001.65
2018-07-19T00:05:29.575Z,1001.65
2018-07-19T00:06:29.561Z,1001.63
2018-07-19T00:07:29.560Z,1001.61
2018-07-19T00:08:29.571Z,1001.64
2018-07-19T00:09:29.573Z,1001.64
2018-07-19T00:10:29.565Z,1001.62
2018-07-19T00:11:29.568Z,1001.61
2018-07-19T00:12:29.571Z,1001.62
2018-07-19T00:13:29.576Z,1001.60
2018-07-19T00:14:29.574Z,1001.59
2018-07-19T00:15:29.622Z,1001.54
2018-07-19T00:16:29.575Z,1001.53
2018-07-19T00:17:29.590Z,1001.55
2018-07-19T00:18:29.586Z,1001.53
2018-07-19T00:19:29.582Z,1001.59
2018-07-19T00:20:29.585Z,1001.54
2018-07-19T00:21:29.585Z,1001.56
2018-07-19T00:22:29.587Z,1001.59
2018-07-19T00:23:29.590Z,1001.65
2018-07-19T00:24:29.592Z,1001.57
2018-07-19T00:25:29.593Z,1001.61
2018-07-19T00:26:29.594Z,1001.59
2018-07-19T00:27:29.602Z,1001.60
2018-07-19T00:28:29.602Z,1001.61
2018-07-19T00:29:29.606Z,1001.58
2018-07-19T00:30:29.606Z,1001.57
2018-07-19T00:31:29.613Z,1001.55
2018-07-19T00:32:29.610Z,1001.58
2018-07-19T00:33:29.613Z,1001.60
2018-07-19T00:34:29.617Z,1001.58
2018-07-19T00:35:29.615Z,1001.59
2018-07-19T00:36:29.617Z,1001.59
2018-07-19T00:37:29.620Z,1001.61
2018-07-19T00:38:29.623Z,1001.59
2018-07-19T00:39:29.608Z,1001.56
2018-07-19T00:40:29.626Z,1001.57
2018-07-19T00:41:29.627Z,1001.55
2018-07-19T00:42:29.630Z,1001.54
2018-07-19T00:43:29.631Z,1001.53
2018-07-19T00:44:29.633Z,1001.52
2018-07-19T00:45:29.634Z,1001.53
2018-07-19T00:46:29.645Z,1001.56
2018-07-19T00:47:29.640Z,1001.50
2018-07-19T00:48:29.640Z,1001.53
2018-07-19T00:49:29.646Z,1001.55
2018-07-19T00:50:29.643Z,1001.57
2018-07-19T00:51:29.656Z,1001.56
2018-07-19T00:52:29.648Z,1001.55
2018-07-19T00:53:29.651Z,1001.57
2018-07-19T00:54:29.650Z,1001.56
2018-07-19T00:55:29.652Z,1001.57
2018-07-19T00:56:29.656Z,1001.56
2018-07-19T00:57:29.660Z,1001.58
2018-07-19T00:58:29.669Z,1001.56
2018-07-19T00:59:29.659Z,1001.57
2018-07-19T01:00:29.661Z,1001.56
2018-07-19T01:01:29.665Z,1001.57
2018-07-19T01:02:29.663Z,1001.56
2018-07-19T01:03:29.667Z,1001.57
2018-07-19T01:04:29.667Z,1001.60
2018-07-19T01:05:29.669Z,1001.56
2018-07-19T01:06:29.669Z,1001.59
2018-07-19T01:07:29.673Z,1001.58
2018-07-19T01:08:29.677Z,1001.61
2018-07-19T01:09:29.677Z,1001.57
2018-07-19T01:10:29.679Z,1001.57
2018-07-19T01:11:29.680Z,1001.59
2018-07-19T01:12:29.681Z,1001.58
2018-07-19T01:13:29.683Z,1001.59
2018-07-19T01:14:29.685Z,1001.60
2018-07-19T01:15:29.686Z,1001.59
2018-07-19T01:16:29.691Z,1001.60
2018-07-19T01:17:29.689Z,1001.59
2018-07-19T01:18:29.690Z,1001.61
2018-07-19T01:19:29.694Z,1001.62
2018-07-19T01:20:29.693Z,1001.60
2018-07-19T01:21:29.765Z,1001.59
2018-07-19T01:22:29.696Z,1001.60
2018-07-19T01:23:29.704Z,1001.60
2018-07-19T01:24:29.703Z,1001.60
2018-07-19T01:25:29.702Z,1001.60
2018-07-19T01:26:29.701Z,1001.59
2018-07-19T01:27:29.709Z,1001.63
2018-07-19T01:28:29.709Z,1001.64
2018-07-19T01:29:29.708Z,1001.61
2018-07-19T01:30:29.708Z,1001.61
2018-07-19T01:31:29.709Z,1001.64
2018-07-19T01:32:29.713Z,1001.66
2018-07-19T01:33:29.713Z,1001.64
2018-07-19T01:34:29.714Z,1001.67
2018-07-19T01:35:29.746Z,1001.72
2018-07-19T01:36:29.720Z,1001.69
2018-07-19T01:37:29.718Z,1001.70
2018-07-19T01:38:29.725Z,1001.68
2018-07-19T01:39:29.721Z,1001.68
2018-07-19T01:40:29.726Z,1001.72
2018-07-19T01:41:29.725Z,1001.73
2018-07-19T01:42:29.729Z,1001.71
2018-07-19T01:43:29.731Z,1001.68
2018-07-19T01:44:29.728Z,1001.70
2018-07-19T01:45:29.737Z,1001.67
2018-07-19T01:46:29.744Z,1001.68
2018-07-19T01:47:29.733Z,1001.70
2018-07-19T01:48:29.735Z,1001.73
2018-07-19T01:49:29.739Z,1001.70
2018-07-19T01:50:29.737Z,1001.73
2018-07-19T01:51:29.740Z,1001.75
2018-07-19T01:52:29.742Z,1001.75
2018-07-19T01:53:29.746Z,1001.70
2018-07-19T01:54:29.745Z,1001.70
2018-07-19T01:55:29.745Z,1001.71
2018-07-19T01:56:29.745Z,1001.68
2018-07-19T01:57:29.747Z,1001.66
2018-07-19T01:58:29.749Z,1001.69
2018-07-19T01:59:29.753Z,1001.67
2018-07-19T02:00:29.902Z,1001.66
2018-07-19T02:01:29.753Z,1001.65
2018-07-19T02:02:29.758Z,1001.64
2018-07-19T02:03:29.756Z,1001.65
2018-07-19T02:04:29.756Z,1001.65
2018-07-19T02:05:29.762Z,1001.63
2018-07-19T02:06:29.760Z,1001.67
2018-07-19T02:07:29.760Z,1001.63
2018-07-19T02:08:29.761Z,1001.68
2018-07-19T02:09:29.767Z,1001.71
2018-07-19T02:10:29.765Z,1001.72
2018-07-19T02:11:29.766Z,1001.71
2018-07-19T02:12:29.768Z,1001.73
2018-07-19T02:13:29.770Z,1001.73
2018-07-19T02:14:29.771Z,1001.75
2018-07-19T02:15:29.787Z,1001.75
2018-07-19T02:16:29.774Z,1001.78
2018-07-19T02:17:29.772Z,1001.76
2018-07-19T02:18:29.773Z,1001.79
2018-07-19T02:19:29.781Z,1001.75
2018-07-19T02:20:29.778Z,1001.81
2018-07-19T02:21:29.777Z,1001.79
2018-07-19T02:22:29.778Z,1001.76
2018-07-19T02:23:29.779Z,1001.79
2018-07-19T02:24:29.786Z,1001.72
2018-07-19T02:25:29.782Z,1001.74
2018-07-19T02:26:29.783Z,1001.74
2018-07-19T02:27:29.783Z,1001.76
2018-07-19T02:28:29.796Z,1001.74
2018-07-19T02:29:29.787Z,1001.72
2018-07-19T02:30:29.790Z,1001.75
2018-07-19T02:31:30.281Z,1001.77
2018-07-19T02:32:29.790Z,1001.78
2018-07-19T02:33:29.790Z,1001.80
2018-07-19T02:34:29.791Z,1001.82
2018-07-19T02:35:29.796Z,1001.82
2018-07-19T02:36:29.792Z,1001.84
2018-07-19T02:37:29.794Z,1001.87
2018-07-19T02:38:29.795Z,1001.83
2018-07-19T02:39:29.803Z,1001.83
2018-07-19T02:40:29.814Z,1001.83
2018-07-19T02:41:29.797Z,1001.81
2018-07-19T02:42:29.803Z,1001.80
2018-07-19T02:43:29.805Z,1001.78
2018-07-19T02:44:29.800Z,1001.77
2018-07-19T02:45:29.804Z,1001.79
2018-07-19T02:46:29.804Z,1001.77
2018-07-19T02:47:29.804Z,1001.80
2018-07-19T02:48:29.806Z,1001.78
2018-07-19T02:49:29.804Z,1001.77
2018-07-19T02:50:29.804Z,1001.78
2018-07-19T02:51:29.807Z,1001.79
2018-07-19T02:52:29.807Z,1001.77
2018-07-19T02:53:29.811Z,1001.79
2018-07-19T02:54:29.810Z,1001.78
2018-07-19T02:55:29.812Z,1001.76
2018-07-19T02:56:29.816Z,1001.77
2018-07-19T02:57:29.811Z,1001.79
2018-07-19T02:58:29.811Z,1001.79
2018-07-19T02:59:29.811Z,1001.80
2018-07-19T03:00:29.816Z,1001.79
2018-07-19T03:01:29.841Z,1001.81
2018-07-19T03:02:30.688Z,1001.80
2018-07-19T03:03:29.831Z,1001.78
2018-07-19T03:04:29.816Z,1001.81
2018-07-19T03:05:29.818Z,1001.78
2018-07-19T03:06:29.846Z,1001.81
2018-07-19T03:07:29.818Z,1001.80
2018-07-19T03:08:29.819Z,1001.78
2018-07-19T03:09:29.821Z,1001.75
2018-07-19T03:10:29.819Z,1001.76
2018-07-19T03:11:29.820Z,1001.79
2018-07-19T03:12:29.822Z,1001.78
2018-07-19T03:13:29.843Z,1001.80
2018-07-19T03:14:29.829Z,1001.84
2018-07-19T03:15:29.822Z,1001.85
2018-07-19T03:16:29.825Z,1001.85
2018-07-19T03:17:29.830Z,1001.87
2018-07-19T03:18:36.719Z,1001.83
2018-07-19T03:19:29.824Z,1001.84
2018-07-19T03:20:29.825Z,1001.86
2018-07-19T03:21:29.828Z,1001.88
2018-07-19T03:22:29.828Z,1001.84
2018-07-19T03:23:29.831Z,1001.84
2018-07-19T03:24:29.828Z,1001.90
2018-07-19T03:25:29.832Z,1001.87
2018-07-19T03:26:29.828Z,1001.92
2018-07-19T03:27:29.836Z,1001.90
2018-07-19T03:28:29.830Z,1001.95
2018-07-19T03:29:29.831Z,1001.97
2018-07-19T03:30:29.831Z,1001.95
2018-07-19T03:31:29.832Z,1001.95
2018-07-19T03:32:29.833Z,1001.96
2018-07-19T03:33:29.837Z,1001.94
2018-07-19T03:34:29.835Z,1001.93
2018-07-19T03:35:29.835Z,1001.97
2018-07-19T03:36:29.838Z,1001.96
2018-07-19T03:37:29.835Z,1001.98
2018-07-19T03:38:29.834Z,1001.96
2018-07-19T03:39:29.835Z,1001.98
2018-07-19T03:40:29.835Z,1001.98
2018-07-19T03:41:29.836Z,1001.98
2018-07-19T03:42:29.835Z,1002.01
2018-07-19T03:43:29.848Z,1001.99
2018-07-19T03:44:29.837Z,1001.96
2018-07-19T03:45:29.840Z,1002.00
2018-07-19T03:46:29.844Z,1001.98
2018-07-19T03:47:29.839Z,1001.97
2018-07-19T03:48:29.838Z,1002.04
2018-07-19T03:49:29.840Z,1001.99
2018-07-19T03:50:29.845Z,1002.03
2018-07-19T03:51:29.842Z,1002.05
2018-07-19T03:52:29.845Z,1002.05
2018-07-19T03:53:29.849Z,1002.07
2018-07-19T03:54:29.841Z,1002.02
2018-07-19T03:55:29.841Z,1002.04
2018-07-19T03:56:29.843Z,1002.05
2018-07-19T03:57:29.844Z,1002.03
2018-07-19T03:58:29.844Z,1002.03
2018-07-19T03:59:29.845Z,1002.03
2018-07-19T04:00:29.846Z,1002.05
2018-07-19T04:01:29.848Z,1002.04
2018-07-19T04:02:29.845Z,1002.06
2018-07-19T04:03:29.846Z,1002.06
2018-07-19T04:04:29.849Z,1002.07
2018-07-19T04:05:29.847Z,1002.12
2018-07-19T04:06:29.852Z,1002.11
2018-07-19T04:07:29.850Z,1002.11
2018-07-19T04:08:29.851Z,1002.11
2018-07-19T04:09:29.854Z,1002.13
2018-07-19T04:10:29.849Z,1002.12
2018-07-19T04:11:29.851Z,1002.14
2018-07-19T04:12:29.858Z,1002.10
2018-07-19T04:13:29.856Z,1002.13
2018-07-19T04:14:29.853Z,1002.13
2018-07-19T04:15:29.856Z,1002.14
2018-07-19T04:16:29.857Z,1002.13
2018-07-19T04:17:29.855Z,1002.11
2018-07-19T04:18:29.858Z,1002.11
2018-07-19T04:19:29.856Z,1002.08
2018-07-19T04:20:29.858Z,1002.09
2018-07-19T04:21:29.858Z,1002.08
2018-07-19T04:22:29.857Z,1002.10
2018-07-19T04:23:29.862Z,1002.13
2018-07-19T04:24:29.859Z,1002.14
2018-07-19T04:25:29.878Z,1002.10
2018-07-19T04:26:29.863Z,1002.14
2018-07-19T04:27:29.862Z,1002.12
2018-07-19T04:28:29.862Z,1002.12
2018-07-19T04:29:29.864Z,1002.13
2018-07-19T04:30:29.865Z,1002.10
2018-07-19T04:31:29.863Z,1002.13
2018-07-19T04:32:29.864Z,1002.09
2018-07-19T04:33:29.866Z,1002.12
2018-07-19T04:34:29.870Z,1002.16
2018-07-19T04:35:29.867Z,1002.12
2018-07-19T04:36:29.867Z,1002.13
2018-07-19T04:37:29.881Z,1002.13
2018-07-19T04:38:29.872Z,1002.12
2018-07-19T04:39:29.870Z,1002.14
2018-07-19T04:40:29.871Z,1002.12
2018-07-19T04:41:29.872Z,1002.14
2018-07-19T04:42:29.871Z,1002.12
2018-07-19T04:43:29.876Z,1002.18
2018-07-19T04:44:29.875Z,1002.19
2018-07-19T04:45:29.883Z,1002.19
2018-07-19T04:46:29.874Z,1002.18
2018-07-19T04:47:29.877Z,1002.18
2018-07-19T04:48:29.887Z,1002.18
2018-07-19T04:49:29.883Z,1002.18
2018-07-19T04:50:29.880Z,1002.17
2018-07-19T04:51:29.881Z,1002.20
2018-07-19T04:52:29.882Z,1002.17
2018-07-19T04:53:29.885Z,1002.14
2018-07-19T04:54:29.888Z,1002.20
2018-07-19T04:55:29.885Z,1002.20
2018-07-19T04:56:29.886Z,1002.21
2018-07-19T04:57:29.888Z,1002.22
2018-07-19T04:58:29.891Z,1002.23
2018-07-19T04:59:29.890Z,1002.24
2018-07-19T05:00:29.891Z,1002.27
2018-07-19T05:01:29.895Z,1002.24
2018-07-19T05:02:29.893Z,1002.28
2018-07-19T05:03:29.898Z,1002.27
2018-07-19T05:04:29.903Z,1002.28
2018-07-19T05:05:30.222Z,1002.27
2018-07-19T05:06:29.905Z,1002.24
2018-07-19T05:07:29.902Z,1002.26
2018-07-19T05:08:29.908Z,1002.25
2018-07-19T05:09:29.906Z,1002.27
2018-07-19T05:10:29.904Z,1002.25
2018-07-19T05:11:29.906Z,1002.30
2018-07-19T05:12:29.907Z,1002.30
2018-07-19T05:13:29.920Z,1002.29
2018-07-19T05:14:29.915Z,1002.26
2018-07-19T05:15:29.917Z,1002.31
2018-07-19T05:16:29.915Z,1002.28
2018-07-19T05:17:29.924Z,1002.26
2018-07-19T05:18:29.917Z,1002.28
2018-07-19T05:19:29.919Z,1002.27
2018-07-19T05:20:29.922Z,1002.33
2018-07-19T05:21:29.924Z,1002.31
2018-07-19T05:22:29.927Z,1002.31
2018-07-19T05:23:29.928Z,1002.34
2018-07-19T05:24:29.936Z,1002.30
2018-07-19T05:25:29.935Z,1002.33
2018-07-19T05:26:29.935Z,1002.37
2018-07-19T05:27:29.941Z,1002.36
2018-07-19T05:28:29.942Z,1002.38
2018-07-19T05:29:29.948Z,1002.35
2018-07-19T05:30:29.947Z,1002.36
2018-07-19T05:31:29.949Z,1002.31
2018-07-19T05:32:29.953Z,1002.30
2018-07-19T05:33:29.962Z,1002.32
2018-07-19T05:34:30.000Z,1002.30
2018-07-19T05:35:29.965Z,1002.28
2018-07-19T05:36:30.627Z,1002.30
2018-07-19T05:37:29.970Z,1002.28
2018-07-19T05:38:29.986Z,1002.31
2018-07-19T05:39:29.979Z,1002.30
2018-07-19T05:40:30.004Z,1002.29
2018-07-19T05:41:29.986Z,1002.32
2018-07-19T05:42:30.067Z,1002.29
2018-07-19T05:43:29.994Z,1002.28
2018-07-19T05:44:30.012Z,1002.27
2018-07-19T05:45:30.004Z,1002.27
2018-07-19T05:46:30.008Z,1002.23
2018-07-19T05:47:30.015Z,1002.25
2018-07-19T05:48:30.015Z,1002.21
2018-07-19T05:49:30.020Z,1002.23
2018-07-19T05:50:30.024Z,1002.22
2018-07-19T05:51:30.025Z,1002.25
2018-07-19T05:52:30.034Z,1002.24
2018-07-19T05:53:30.034Z,1002.23
2018-07-19T05:54:30.037Z,1002.25
2018-07-19T05:55:30.040Z,1002.24
2018-07-19T05:56:30.045Z,1002.23
2018-07-19T05:57:30.052Z,1002.21
2018-07-19T05:58:30.052Z,1002.21
2018-07-19T05:59:30.055Z,1002.20
2018-07-19T06:00:30.062Z,1002.25
2018-07-19T06:01:30.071Z,1002.17
2018-07-19T06:02:30.067Z,1002.18
2018-07-19T06:03:30.075Z,1002.20
2018-07-19T06:04:30.082Z,1002.23
2018-07-19T06:05:30.081Z,1002.22
2018-07-19T06:06:30.084Z,1002.19
2018-07-19T06:07:31.004Z,1002.17
2018-07-19T06:08:30.092Z,1002.18
2018-07-19T06:09:30.119Z,1002.17
2018-07-19T06:10:30.104Z,1002.11
2018-07-19T06:11:30.105Z,1002.12
2018-07-19T06:12:30.293Z,1002.13
2018-07-19T06:13:30.146Z,1002.14
2018-07-19T06:14:30.119Z,1002.09
2018-07-19T06:15:30.124Z,1002.10
2018-07-19T06:16:30.131Z,1002.10
2018-07-19T06:17:30.134Z,1002.08
2018-07-19T06:18:30.165Z,1002.08
2018-07-19T06:19:30.140Z,1002.12
2018-07-19T06:20:30.143Z,1002.12
2018-07-19T06:21:30.191Z,1002.07
2018-07-19T06:22:30.152Z,1002.08
2018-07-19T06:23:30.155Z,1002.11
2018-07-19T06:24:30.161Z,1002.06
2018-07-19T06:25:30.165Z,1002.04
2018-07-19T06:26:30.170Z,1002.05
2018-07-19T06:27:30.182Z,1002.06
2018-07-19T06:28:30.185Z,1002.02
2018-07-19T06:29:30.181Z,1002.01
2018-07-19T06:30:30.186Z,1002.03
2018-07-19T06:31:30.233Z,1001.98
2018-07-19T06:32:30.193Z,1002.02
2018-07-19T06:33:30.197Z,1002.00
2018-07-19T06:34:30.200Z,1001.96
2018-07-19T06:35:30.203Z,1002.00
2018-07-19T06:36:30.417Z,1002.01
2018-07-19T06:37:30.212Z,1001.97
2018-07-19T06:38:30.215Z,1001.97
2018-07-19T06:39:30.219Z,1002.01
2018-07-19T06:40:30.224Z,1001.99
2018-07-19T06:41:30.240Z,1002.00
2018-07-19T06:42:30.232Z,1001.99
2018-07-19T06:43:30.823Z,1002.00
2018-07-19T06:44:30.288Z,1001.97
2018-07-19T06:45:30.244Z,1001.97
2018-07-19T06:46:30.247Z,1001.95
2018-07-19T06:47:30.251Z,1001.96
2018-07-19T06:48:30.255Z,1001.93
2018-07-19T06:49:30.284Z,1001.96
2018-07-19T06:50:30.263Z,1001.94
2018-07-19T06:51:30.311Z,1001.92
2018-07-19T06:52:30.272Z,1001.95
2018-07-19T06:53:30.274Z,1001.90
2018-07-19T06:54:30.278Z,1001.96
2018-07-19T06:55:30.284Z,1001.92
2018-07-19T06:56:30.285Z,1001.94
2018-07-19T06:57:30.331Z,1001.96
2018-07-19T06:58:30.539Z,1001.94
2018-07-19T06:59:30.297Z,1001.93
2018-07-19T07:00:30.303Z,1001.96
2018-07-19T07:01:30.305Z,1001.94
2018-07-19T07:02:30.348Z,1002.00
2018-07-19T07:03:30.370Z,1001.99
2018-07-19T07:04:30.645Z,1001.95
2018-07-19T07:05:30.321Z,1001.98
2018-07-19T07:06:30.322Z,1001.98
2018-07-19T07:07:30.327Z,1001.98
2018-07-19T07:08:30.330Z,1001.98
2018-07-19T07:09:30.335Z,1002.00
2018-07-19T07:10:30.345Z,1001.96
2018-07-19T07:11:30.343Z,1001.92
2018-07-19T07:12:30.346Z,1001.90
2018-07-19T07:13:30.355Z,1001.92
2018-07-19T07:14:30.352Z,1001.90
2018-07-19T07:15:30.359Z,1001.92
2018-07-19T07:16:30.359Z,1001.92
2018-07-19T07:17:30.449Z,1001.97
2018-07-19T07:18:30.366Z,1001.91
2018-07-19T07:19:30.369Z,1001.92
2018-07-19T07:20:30.375Z,1001.93
2018-07-19T07:21:30.383Z,1001.95
2018-07-19T07:22:30.380Z,1001.95
2018-07-19T07:23:30.384Z,1001.94
2018-07-19T07:24:30.386Z,1001.92
2018-07-19T07:25:30.389Z,1001.89
2018-07-19T07:26:30.421Z,1001.93
2018-07-19T07:27:30.416Z,1001.94
2018-07-19T07:28:30.551Z,1001.90
2018-07-19T07:29:30.403Z,1001.92
2018-07-19T07:30:30.409Z,1001.91
2018-07-19T07:31:30.823Z,1001.92
2018-07-19T07:32:30.438Z,1001.89
2018-07-19T07:33:30.421Z,1001.92
2018-07-19T07:34:30.479Z,1001.90
2018-07-19T07:35:30.427Z,1001.90
2018-07-19T07:36:30.425Z,1001.83
2018-07-19T07:37:30.429Z,1001.86
2018-07-19T07:38:30.434Z,1001.86
2018-07-19T07:39:30.464Z,1001.86
2018-07-19T07:40:30.443Z,1001.84
2018-07-19T07:41:30.444Z,1001.88
2018-07-19T07:42:30.445Z,1001.84
2018-07-19T07:43:30.449Z,1001.87
2018-07-19T07:44:30.455Z,1001.89
2018-07-19T07:45:30.457Z,1001.86
2018-07-19T07:46:30.460Z,1001.86
2018-07-19T07:47:30.469Z,1001.86
2018-07-19T07:48:30.482Z,1001.88
2018-07-19T07:49:30.495Z,1001.83
2018-07-19T07:50:30.483Z,1001.83
2018-07-19T07:51:30.479Z,1001.81
2018-07-19T07:52:30.520Z,1001.85
2018-07-19T07:53:30.483Z,1001.86
2018-07-19T07:54:30.509Z,1001.85
2018-07-19T07:55:30.491Z,1001.85
2018-07-19T07:56:30.495Z,1001.83
2018-07-19T07:57:30.498Z,1001.79
2018-07-19T07:58:30.635Z,1001.80
2018-07-19T07:59:30.504Z,1001.82
2018-07-19T08:00:30.554Z,1001.80
2018-07-19T08:01:30.515Z,1001.81
2018-07-19T08:02:30.516Z,1001.79
2018-07-19T08:03:30.520Z,1001.81
2018-07-19T08:04:30.520Z,1001.81
2018-07-19T08:05:30.528Z,1001.81
2018-07-19T08:06:30.528Z,1001.81
2018-07-19T08:07:30.532Z,1001.84
2018-07-19T08:08:30.535Z,1001.80
2018-07-19T08:09:30.539Z,1001.79
2018-07-19T08:10:30.746Z,1001.79
2018-07-19T08:11:30.545Z,1001.74
2018-07-19T08:12:30.552Z,1001.79
2018-07-19T08:13:30.554Z,1001.76
2018-07-19T08:14:30.574Z,1001.76
2018-07-19T08:15:30.579Z,1001.72
2018-07-19T08:16:30.592Z,1001.77
2018-07-19T08:17:30.582Z,1001.75
2018-07-19T08:18:30.680Z,1001.73
2018-07-19T08:19:30.586Z,1001.76
2018-07-19T08:20:30.621Z,1001.78
2018-07-19T08:21:30.595Z,1001.77
2018-07-19T08:22:30.589Z,1001.76
2018-07-19T08:23:30.620Z,1001.79
2018-07-19T08:24:30.593Z,1001.82
2018-07-19T08:25:30.623Z,1001.78
2018-07-19T08:26:30.609Z,1001.77
2018-07-19T08:27:30.607Z,1001.80
2018-07-19T08:28:30.699Z,1001.79
2018-07-19T08:29:30.634Z,1001.79
2018-07-19T08:30:30.621Z,1001.82
2018-07-19T08:31:30.637Z,1001.76
2018-07-19T08:32:30.630Z,1001.76
2018-07-19T08:33:30.636Z,1001.70
2018-07-19T08:34:30.734Z,1001.76
2018-07-19T08:35:30.661Z,1001.77
2018-07-19T08:36:30.643Z,1001.82
2018-07-19T08:37:30.659Z,1001.80
2018-07-19T08:38:30.654Z,1001.80
2018-07-19T08:39:30.647Z,1001.82
2018-07-19T08:40:30.651Z,1001.81
2018-07-19T08:41:31.125Z,1001.81
2018-07-19T08:42:30.661Z,1001.79
2018-07-19T08:43:30.667Z,1001.77
2018-07-19T08:44:30.678Z,1001.79
2018-07-19T08:45:30.676Z,1001.76
2018-07-19T08:46:30.683Z,1001.74
2018-07-19T08:47:30.687Z,1001.82
2018-07-19T08:48:30.683Z,1001.77
2018-07-19T08:49:30.687Z,1001.73
2018-07-19T08:50:30.690Z,1001.76
2018-07-19T08:51:30.694Z,1001.78
2018-07-19T08:52:30.701Z,1001.78
2018-07-19T08:53:30.707Z,1001.77
2018-07-19T08:54:30.707Z,1001.79
2018-07-19T08:55:30.713Z,1001.79
2018-07-19T08:56:30.771Z,1001.83
2018-07-19T08:57:30.724Z,1001.85
2018-07-19T08:58:30.731Z,1001.86
2018-07-19T08:59:30.748Z,1001.83
2018-07-19T09:00:30.773Z,1001.81
2018-07-19T09:01:30.749Z,1001.80
2018-07-19T09:02:30.750Z,1001.79
2018-07-19T09:03:30.756Z,1001.82
2018-07-19T09:04:30.763Z,1001.85
2018-07-19T09:05:30.769Z,1001.81
2018-07-19T09:06:30.785Z,1001.83
2018-07-19T09:07:30.787Z,1001.82
2018-07-19T09:08:30.791Z,1001.84
2018-07-19T09:09:30.799Z,1001.85
2018-07-19T09:10:30.855Z,1001.84
2018-07-19T09:11:30.811Z,1001.85
2018-07-19T09:12:31.516Z,1001.85
2018-07-19T09:13:30.830Z,1001.85
2018-07-19T09:14:30.836Z,1001.84
2018-07-19T09:15:30.851Z,1001.86
2018-07-19T09:16:30.877Z,1001.90
2018-07-19T09:17:30.886Z,1001.82
2018-07-19T09:18:30.871Z,1001.89
2018-07-19T09:19:30.910Z,1001.94
2018-07-19T09:20:30.893Z,1001.94
2018-07-19T09:21:30.899Z,1001.90
2018-07-19T09:22:30.906Z,1001.89
2018-07-19T09:23:30.917Z,1001.94
2018-07-19T09:24:30.930Z,1001.93
2018-07-19T09:25:30.937Z,1001.86
2018-07-19T09:26:30.990Z,1001.83
2018-07-19T09:27:30.959Z,1001.90
2018-07-19T09:28:30.969Z,1001.93
2018-07-19T09:29:32.819Z,1001.91
2018-07-19T09:30:30.991Z,1001.85
2018-07-19T09:31:30.999Z,1001.91
2018-07-19T09:32:31.038Z,1001.88
2018-07-19T09:33:31.021Z,1001.92
2018-07-19T09:34:31.412Z,1001.91
2018-07-19T09:35:31.052Z,1001.91
2018-07-19T09:36:31.056Z,1001.92
2018-07-19T09:37:31.069Z,1001.89
2018-07-19T09:38:31.118Z,1001.83
2018-07-19T09:39:31.085Z,1001.85
2018-07-19T09:40:31.099Z,1001.85
2018-07-19T09:41:31.109Z,1001.87
2018-07-19T09:42:31.124Z,1001.83
2018-07-19T09:43:31.951Z,1001.85
2018-07-19T09:44:31.177Z,1001.80
2018-07-19T09:45:31.165Z,1001.91
2018-07-19T09:46:31.205Z,1001.83
2018-07-19T09:47:31.179Z,1001.89
2018-07-19T09:48:31.193Z,1001.87
2018-07-19T09:49:31.206Z,1001.92
2018-07-19T09:50:31.273Z,1001.86
2018-07-19T09:51:31.230Z,1001.86
2018-07-19T09:52:31.242Z,1001.83
2018-07-19T09:53:31.258Z,1001.82
2018-07-19T09:54:31.263Z,1001.82
2018-07-19T09:55:31.294Z,1001.80
2018-07-19T09:56:31.291Z,1001.77
2018-07-19T09:57:31.304Z,1001.77
2018-07-19T09:58:31.315Z,1001.76
2018-07-19T09:59:31.388Z,1001.82
2018-07-19T10:00:31.343Z,1001.77
2018-07-19T10:01:31.356Z,1001.82
2018-07-19T10:02:31.371Z,1001.87
2018-07-19T10:03:31.384Z,1001.93
2018-07-19T10:04:31.395Z,1001.84
2018-07-19T10:05:31.408Z,1001.86
2018-07-19T10:06:31.425Z,1001.89
2018-07-19T10:07:31.439Z,1001.88
2018-07-19T10:08:31.452Z,1001.84
2018-07-19T10:09:31.468Z,1001.83
2018-07-19T10:10:31.478Z,1001.81
2018-07-19T10:11:31.497Z,1001.76
2018-07-19T10:12:31.506Z,1001.79
2018-07-19T10:13:32.399Z,1001.75
2018-07-19T10:14:32.405Z,1001.75
2018-07-19T10:15:31.614Z,1001.74
2018-07-19T10:16:31.608Z,1001.75
2018-07-19T10:17:33.343Z,1001.75
2018-07-19T10:18:31.590Z,1001.69
2018-07-19T10:19:31.603Z,1001.72
2018-07-19T10:20:31.671Z,1001.71
2018-07-19T10:21:31.634Z,1001.70
2018-07-19T10:22:33.356Z,1001.71
2018-07-19T10:23:31.951Z,1001.76
2018-07-19T10:24:31.677Z,1001.74
2018-07-19T10:25:31.687Z,1001.76
2018-07-19T10:26:31.854Z,1001.77
2018-07-19T10:27:31.714Z,1001.82
2018-07-19T10:28:31.927Z,1001.77
2018-07-19T10:29:31.992Z,1001.76
2018-07-19T10:30:31.757Z,1001.72
2018-07-19T10:31:31.796Z,1001.75
2018-07-19T10:32:31.810Z,1001.73
2018-07-19T10:33:31.798Z,1001.67
2018-07-19T10:34:31.842Z,1001.76
2018-07-19T10:35:31.970Z,1001.76
2018-07-19T10:36:31.841Z,1001.72
2018-07-19T10:37:31.909Z,1001.78
2018-07-19T10:38:31.875Z,1001.73
2018-07-19T10:39:31.885Z,1001.74
2018-07-19T10:40:32.040Z,1001.68
2018-07-19T10:41:31.958Z,1001.64
2018-07-19T10:42:31.932Z,1001.65
2018-07-19T10:43:31.946Z,1001.65
2018-07-19T10:44:31.964Z,1001.68
2018-07-19T10:45:32.805Z,1001.68
2018-07-19T10:46:31.992Z,1001.72
2018-07-19T10:47:32.083Z,1001.64
2018-07-19T10:48:32.025Z,1001.62
2018-07-19T10:49:32.044Z,1001.65
2018-07-19T10:50:32.058Z,1001.63
2018-07-19T10:51:32.082Z,1001.56
2018-07-19T10:52:32.092Z,1001.56
2018-07-19T10:53:32.104Z,1001.57
2018-07-19T10:54:32.122Z,1001.55
2018-07-19T10:55:32.167Z,1001.57
2018-07-19T10:56:32.403Z,1001.58
2018-07-19T10:57:32.267Z,1001.54
2018-07-19T10:58:32.187Z,1001.52
2018-07-19T10:59:32.199Z,1001.51
2018-07-19T11:00:32.224Z,1001.50
2018-07-19T11:01:32.232Z,1001.47
2018-07-19T11:02:32.249Z,1001.47
2018-07-19T11:03:32.264Z,1001.46
2018-07-19T11:04:32.297Z,1001.45
2018-07-19T11:05:32.296Z,1001.46
2018-07-19T11:06:32.314Z,1001.47
2018-07-19T11:07:32.356Z,1001.50
2018-07-19T11:08:32.343Z,1001.44
2018-07-19T11:09:32.426Z,1001.44
2018-07-19T11:10:32.376Z,1001.42
2018-07-19T11:11:32.395Z,1001.43
2018-07-19T11:12:32.417Z,1001.39
2018-07-19T11:13:32.425Z,1001.40
2018-07-19T11:14:32.441Z,1001.42
2018-07-19T11:15:32.461Z,1001.36
2018-07-19T11:16:33.418Z,1001.39
2018-07-19T11:17:32.518Z,1001.38
2018-07-19T11:18:32.520Z,1001.42
2018-07-19T11:19:32.958Z,1001.37
2018-07-19T11:20:32.540Z,1001.41
2018-07-19T11:21:32.558Z,1001.36
2018-07-19T11:22:32.598Z,1001.41
2018-07-19T11:23:32.594Z,1001.45
2018-07-19T11:24:32.608Z,1001.40
2018-07-19T11:25:32.624Z,1001.39
2018-07-19T11:26:32.747Z,1001.37
2018-07-19T11:27:32.660Z,1001.33
2018-07-19T11:28:32.685Z,1001.37
2018-07-19T11:29:32.693Z,1001.36
2018-07-19T11:30:32.709Z,1001.39
2018-07-19T11:31:32.727Z,1001.35
2018-07-19T11:32:32.770Z,1001.35
2018-07-19T11:33:32.761Z,1001.33
2018-07-19T11:34:32.774Z,1001.30
2018-07-19T11:35:32.791Z,1001.34
2018-07-19T11:36:32.840Z,1001.34
2018-07-19T11:37:32.825Z,1001.33
2018-07-19T11:38:32.876Z,1001.27
2018-07-19T11:39:32.861Z,1001.28
2018-07-19T11:40:32.890Z,1001.29
2018-07-19T11:41:33.147Z,1001.22
2018-07-19T11:42:32.918Z,1001.28
2018-07-19T11:43:32.928Z,1001.27
2018-07-19T11:44:33.895Z,1001.29
2018-07-19T11:45:32.999Z,1001.37
2018-07-19T11:46:32.988Z,1001.34
2018-07-19T11:47:33.811Z,1001.31
2018-07-19T11:48:33.021Z,1001.28
2018-07-19T11:49:33.054Z,1001.32
2018-07-19T11:50:33.059Z,1001.28
2018-07-19T11:51:33.077Z,1001.28
2018-07-19T11:52:33.086Z,1001.28
2018-07-19T11:53:33.100Z,1001.26
2018-07-19T11:54:33.123Z,1001.19
2018-07-19T11:55:33.157Z,1001.21
2018-07-19T11:56:33.149Z,1001.19
2018-07-19T11:57:33.184Z,1001.20
2018-07-19T11:58:33.191Z,1001.09
2018-07-19T11:59:33.202Z,1001.11
2018-07-19T12:00:33.213Z,1001.09
2018-07-19T12:01:33.282Z,1001.11
2018-07-19T12:02:33.254Z,1001.09
2018-07-19T12:03:33.304Z,1001.15
2018-07-19T12:04:33.273Z,1001.05
2018-07-19T12:05:33.305Z,1001.06